createdAt,value
2023-01-28T06:16:07.065Z,-1.00
2023-01-28T06:18:11.729Z,-1.00
2023-01-28T06:20:15.610Z,-1.00
2023-01-28T06:22:20.208Z,-0.90
2023-01-28T06:24:24.894Z,-0.80
2023-01-28T06:26:29.680Z,-0.80
2023-01-28T06:28:34.236Z,-0.60
2023-01-28T06:30:38.076Z,-0.50
2023-01-28T06:32:42.500Z,-0.50
2023-01-28T06:34:47.325Z,-0.50
2023-01-28T06:36:53.841Z,-0.40
2023-01-28T06:38:57.916Z,-0.30
2023-01-28T06:41:01.822Z,-0.30
2023-01-28T06:43:08.063Z,-0.30
2023-01-28T06:45:12.751Z,-0.20
2023-01-28T06:47:17.106Z,-0.30
2023-01-28T06:49:22.824Z,-0.30
2023-01-28T06:51:26.798Z,-0.40
2023-01-28T06:53:31.537Z,-0.30
2023-01-28T06:55:36.045Z,-0.30
2023-01-28T06:57:42.110Z,-0.30
2023-01-28T06:59:46.393Z,-0.30
2023-01-28T07:01:50.905Z,-0.40
2023-01-28T07:03:55.646Z,-0.30
2023-01-28T07:05:59.908Z,-0.40
2023-01-28T07:08:05.684Z,-0.40
2023-01-28T07:10:10.515Z,-0.30
2023-01-28T07:12:14.995Z,-0.10
2023-01-28T07:14:19.363Z,0.00
2023-01-28T07:16:24.598Z,0.10
2023-01-28T07:18:29.774Z,0.00
2023-01-28T07:20:33.665Z,0.00
2023-01-28T07:22:37.781Z,0.00
2023-01-28T07:24:41.842Z,0.00
2023-01-28T07:26:46.502Z,0.20
2023-01-28T07:28:50.231Z,0.30
2023-01-28T07:30:54.475Z,0.30
2023-01-28T07:33:00.482Z,0.30
2023-01-28T07:35:05.032Z,0.30
2023-01-28T07:37:10.543Z,0.20
2023-01-28T07:39:28.108Z,0.20
2023-01-28T07:41:36.465Z,0.20
2023-01-28T07:48:01.088Z,0.40
2023-01-28T07:50:05.595Z,0.50
2023-01-28T07:52:10.984Z,0.60
2023-01-28T07:54:16.353Z,0.70
2023-01-28T07:56:20.606Z,0.80
2023-01-28T07:58:24.893Z,0.90
2023-01-28T08:00:31.661Z,1.00
2023-01-28T08:02:35.893Z,1.00
2023-01-28T08:04:42.024Z,1.10
2023-01-28T08:06:46.362Z,1.20
2023-01-28T08:08:50.343Z,1.30
2023-01-28T08:10:54.937Z,1.30
2023-01-28T08:13:01.101Z,1.30
2023-01-28T08:15:06.969Z,1.30
2023-01-28T08:17:11.223Z,1.40
2023-01-28T08:19:15.493Z,1.50
2023-01-28T08:21:19.782Z,1.50
2023-01-28T08:23:24.564Z,1.60
2023-01-28T08:25:28.778Z,1.70
2023-01-28T08:27:33.073Z,1.50
2023-01-28T08:29:37.313Z,1.40
2023-01-28T08:31:41.604Z,1.60
2023-01-28T08:33:46.455Z,1.70
2023-01-28T08:35:51.979Z,1.80
2023-01-28T08:37:57.517Z,1.80
2023-01-28T08:40:01.774Z,1.80
2023-01-28T08:42:07.053Z,1.90
2023-01-28T08:44:13.614Z,1.60
2023-01-28T08:46:18.772Z,1.80
2023-01-28T08:48:23.959Z,1.80
2023-01-28T08:50:30.637Z,1.90
2023-01-28T08:52:35.405Z,2.00
2023-01-28T08:54:40.484Z,2.00
2023-01-28T08:56:48.082Z,2.10
2023-01-28T08:58:52.618Z,2.20
2023-01-28T09:00:56.924Z,2.20
2023-01-28T09:03:03.252Z,2.30
2023-01-28T09:05:10.941Z,2.40
2023-01-28T09:07:15.475Z,2.40
2023-01-28T10:14:04.063Z,1.60
2023-01-28T10:16:32.187Z,1.40
2023-01-28T10:19:03.255Z,1.50
2023-01-28T10:21:17.703Z,1.70
2023-01-28T10:23:31.902Z,1.80
2023-01-28T10:25:38.266Z,1.80
2023-01-28T10:27:42.655Z,1.90
2023-01-28T10:29:49.843Z,1.90
2023-01-28T10:32:18.385Z,2.00
2023-01-28T10:34:23.941Z,2.20
2023-01-28T10:36:29.800Z,2.20
2023-01-28T10:38:34.667Z,2.20
2023-01-28T10:40:39.285Z,2.10
2023-01-28T10:42:44.201Z,2.20
2023-01-28T10:44:51.818Z,2.30
2023-01-28T10:46:59.566Z,2.30
2023-01-28T10:49:30.447Z,2.30
2023-01-28T10:51:39.414Z,2.20
2023-01-28T10:53:49.700Z,2.30
2023-01-28T10:56:02.746Z,2.40
2023-01-28T10:58:08.415Z,2.40
2023-01-28T11:00:24.907Z,2.40
2023-01-28T11:02:39.020Z,2.30
2023-01-28T11:04:43.354Z,2.30
2023-01-28T11:06:59.993Z,2.20
2023-01-28T11:09:04.279Z,2.20
2023-01-28T11:11:17.826Z,2.20
2023-01-28T11:13:25.016Z,2.30
2023-01-28T11:15:29.777Z,2.30
2023-01-28T11:17:38.049Z,2.40
2023-01-28T11:19:43.189Z,2.60
2023-01-28T11:21:53.925Z,2.70
2023-01-28T11:24:17.843Z,2.90
2023-01-28T11:26:34.356Z,3.00
2023-01-28T11:28:43.899Z,3.10
2023-01-28T11:30:55.989Z,3.20
2023-01-28T11:33:22.556Z,3.40
2023-01-28T11:35:32.390Z,3.60
2023-01-28T11:37:39.423Z,3.70
2023-01-28T11:39:43.680Z,3.70
2023-01-28T11:41:50.707Z,3.80
2023-01-28T11:43:55.199Z,3.80
2023-01-28T11:46:32.687Z,3.60
2023-01-28T11:49:01.087Z,3.50
2023-01-28T11:51:29.787Z,3.50
2023-01-28T11:53:34.495Z,3.50
2023-01-28T11:56:02.413Z,3.50
2023-01-28T11:58:14.914Z,3.60
2023-01-28T12:00:21.953Z,3.50
2023-01-28T12:02:51.126Z,3.50
2023-01-28T13:59:29.863Z,0.80
2023-01-28T14:01:55.682Z,0.60
2023-01-28T14:04:32.776Z,0.70
2023-01-28T14:06:43.772Z,0.80
2023-01-28T14:09:25.664Z,1.00
2023-01-28T14:11:37.391Z,1.00
2023-01-28T14:14:14.199Z,1.00
2023-01-28T14:16:27.642Z,0.90
2023-01-28T14:18:39.689Z,0.80
2023-01-28T14:20:47.874Z,0.70
2023-01-28T14:22:54.721Z,0.60
2023-01-28T14:25:03.675Z,0.60
2023-01-28T14:27:11.999Z,0.60
2023-01-28T14:29:37.408Z,0.60
2023-01-28T14:31:41.929Z,0.60
2023-01-28T14:33:46.472Z,0.50
2023-01-28T14:35:52.760Z,0.50
2023-01-28T14:37:57.813Z,0.40
2023-01-28T14:40:19.020Z,0.40
2023-01-28T14:42:24.928Z,0.40
2023-01-28T14:44:42.306Z,0.40
2023-01-28T15:53:52.447Z,-0.50
2023-01-28T15:56:15.919Z,-0.60
2023-01-28T15:58:31.986Z,-0.50
2023-01-28T16:00:36.599Z,-0.40
2023-01-28T16:02:52.425Z,-0.30
2023-01-28T16:05:06.245Z,-0.10
2023-01-28T16:07:11.442Z,-0.10
2023-01-28T16:09:35.465Z,0.00
2023-01-28T16:11:47.111Z,0.00
2023-01-28T16:13:51.448Z,0.10
2023-01-28T16:15:59.330Z,0.10
2023-01-28T16:18:04.314Z,0.10
2023-01-28T16:20:26.917Z,0.10
2023-01-28T16:22:37.243Z,0.20
2023-01-28T16:24:55.739Z,0.20
2023-01-28T16:27:10.048Z,0.20
2023-01-28T16:29:19.747Z,0.20
2023-01-28T16:31:24.899Z,0.20
2023-01-28T16:33:29.350Z,0.10
2023-01-28T16:35:56.534Z,0.20
2023-01-28T16:37:59.517Z,0.20
2023-01-28T16:40:04.524Z,0.10
2023-01-28T16:42:09.183Z,0.10
2023-01-28T16:44:17.486Z,0.10
2023-01-28T16:46:22.217Z,0.10
2023-01-28T16:48:26.746Z,0.10
2023-01-28T16:50:31.908Z,0.10
2023-01-28T16:52:36.524Z,0.10
2023-01-28T16:54:44.603Z,0.10
2023-01-28T16:56:49.324Z,0.10
2023-01-28T16:58:54.075Z,0.10
2023-01-28T17:00:59.111Z,0.10
2023-01-28T17:03:03.421Z,0.10
2023-01-28T17:05:08.173Z,0.10
2023-01-28T17:07:13.123Z,0.10
2023-01-28T17:09:18.891Z,0.10
2023-01-28T17:11:24.399Z,0.20
2023-01-28T17:13:28.352Z,0.20
2023-01-28T17:15:43.661Z,0.20
2023-01-28T17:17:52.268Z,0.10
2023-01-28T17:19:59.311Z,0.10
2023-01-28T17:22:03.167Z,0.10
2023-01-28T17:24:07.468Z,0.00
2023-01-28T17:26:15.007Z,0.10
2023-01-28T17:28:19.819Z,0.00
2023-01-28T17:30:24.195Z,0.00
2023-01-28T17:32:28.602Z,0.00
2023-01-28T17:34:33.666Z,-0.10
2023-01-28T17:36:38.772Z,-0.10
2023-01-28T17:38:47.804Z,-0.10
2023-01-28T17:40:52.413Z,-0.10
2023-01-28T17:42:58.057Z,-0.10
2023-01-28T17:45:05.294Z,-0.20
2023-01-28T17:47:09.543Z,-0.20
2023-01-28T17:49:16.299Z,-0.40
2023-01-28T17:51:21.226Z,-0.50
2023-01-28T17:53:24.510Z,-0.60
2023-01-28T17:55:29.100Z,-0.60
2023-01-28T17:57:33.489Z,-0.60
2023-01-28T17:59:37.750Z,-0.60
2023-01-28T18:01:56.255Z,-0.50
2023-01-28T18:04:02.945Z,-0.40
2023-01-28T18:06:09.387Z,-0.30
2023-01-28T18:08:13.785Z,-0.30
2023-01-28T18:10:20.210Z,-0.30
2023-01-28T18:12:30.277Z,-0.30
2023-01-28T18:14:38.768Z,-0.30
2023-01-28T19:32:59.714Z,-1.20
2023-01-28T19:35:04.166Z,-1.30
2023-01-28T19:37:08.807Z,-1.30
2023-01-28T19:39:15.181Z,-1.20
2023-01-28T19:41:19.780Z,-1.20
2023-01-28T19:43:29.550Z,-1.10
2023-01-28T19:45:34.903Z,-1.00
2023-01-28T19:47:40.010Z,-1.00
2023-01-28T19:49:44.606Z,-1.00
2023-01-28T19:51:49.321Z,-1.10
2023-01-28T19:53:55.744Z,-1.20
2023-01-28T19:55:59.699Z,-1.30
2023-01-28T19:58:03.947Z,-1.40
2023-01-28T20:00:09.001Z,-1.50
2023-01-28T20:02:18.890Z,-1.70
2023-01-28T20:04:23.365Z,-1.70
2023-01-28T20:06:30.363Z,-1.70
2023-01-28T20:08:35.471Z,-1.60
2023-01-28T20:10:40.102Z,-1.50
2023-01-28T20:12:44.791Z,-1.50
2023-01-28T20:14:49.666Z,-1.50
2023-01-28T20:16:54.021Z,-1.60
2023-01-28T20:19:03.433Z,-1.70
2023-01-28T20:21:07.678Z,-1.70
2023-01-28T20:23:12.460Z,-1.70
2023-01-28T20:25:18.733Z,-1.70
2023-01-28T20:27:23.199Z,-1.70
2023-01-28T20:29:28.248Z,-1.70
2023-01-28T20:31:32.985Z,-1.70
2023-01-28T20:33:37.987Z,-1.60
2023-01-28T20:35:42.687Z,-1.60
2023-01-28T20:37:47.328Z,-1.60
2023-01-28T20:39:51.945Z,-1.60
2023-01-28T20:41:56.554Z,-1.50
2023-01-28T20:44:01.287Z,-1.40
2023-01-28T20:46:15.155Z,-1.30
2023-01-28T20:48:19.592Z,-1.10
2023-01-28T20:50:24.160Z,-1.00
2023-01-28T20:52:29.339Z,-0.90
2023-01-28T20:54:33.699Z,-0.80
2023-01-28T20:56:38.186Z,-0.80
2023-01-28T20:58:43.681Z,-0.70
2023-01-28T21:00:48.957Z,-0.60
2023-01-28T21:02:55.008Z,-0.60
2023-01-28T21:04:59.502Z,-0.50
2023-01-28T21:07:03.719Z,-0.50
2023-01-28T21:09:09.059Z,-0.50
2023-01-28T21:11:13.146Z,-0.50
2023-01-28T21:13:18.304Z,-0.50
2023-01-28T21:15:22.565Z,-0.50
2023-01-28T21:17:28.290Z,-0.40
2023-01-28T21:19:32.650Z,-0.40
2023-01-28T21:21:37.125Z,-0.40
2023-01-28T21:23:41.614Z,-0.40
2023-01-28T21:25:52.281Z,-0.30
2023-01-28T21:27:56.516Z,-0.20
2023-01-28T21:30:00.198Z,-0.10
2023-01-28T21:32:05.230Z,-0.10
2023-01-28T21:34:11.148Z,0.00
2023-01-28T21:36:16.555Z,0.00
2023-01-28T21:38:20.966Z,0.00
2023-01-28T21:40:25.385Z,0.10
2023-01-28T21:42:31.158Z,0.20
2023-01-28T21:44:35.238Z,0.20
2023-01-28T21:46:40.231Z,0.20
2023-01-28T21:48:44.752Z,0.30
2023-01-28T21:51:08.408Z,0.30
2023-01-28T21:53:12.942Z,0.30
2023-01-28T21:55:17.633Z,0.30
2023-01-28T21:57:21.909Z,0.30
2023-01-28T21:59:35.334Z,0.30
2023-01-28T22:01:39.975Z,0.20
2023-01-28T22:03:45.386Z,0.20
2023-01-28T22:05:57.448Z,0.20
2023-01-28T22:08:01.636Z,0.20
2023-01-28T22:10:07.253Z,0.20
2023-01-28T22:12:12.608Z,0.10
2023-01-28T22:14:18.707Z,0.10
2023-01-28T22:16:23.736Z,0.10
2023-01-28T22:18:27.489Z,0.20
2023-01-28T22:20:31.620Z,0.10
2023-01-28T22:22:36.348Z,0.10
2023-01-28T22:24:40.488Z,0.10
2023-01-28T22:26:45.297Z,0.10
2023-01-28T22:28:50.141Z,0.10
2023-01-28T22:30:55.418Z,0.10
2023-01-28T22:33:00.415Z,0.00
2023-01-28T22:35:07.448Z,0.00
2023-01-28T22:37:12.607Z,0.00
2023-01-28T22:39:18.801Z,0.00
2023-01-28T22:41:26.526Z,0.00
2023-01-28T22:43:30.718Z,-0.10
2023-01-28T22:45:35.490Z,0.00
2023-01-28T22:47:40.367Z,0.00
